sensor_id;sensor_type;location;lat;lon;timestamp;temperature;humidity
59067;DHT22;44854;50.838;4.438;2023-03-26T05:23:04;10.50;99.90
59067;DHT22;44854;50.838;4.438;2023-03-26T05:25:30;10.60;99.90
59067;DHT22;44854;50.838;4.438;2023-03-26T05:27:55;10.50;99.90
59067;DHT22;44854;50.838;4.438;2023-03-26T05:30:21;10.40;99.90
59067;DHT22;44854;50.838;4.438;2023-03-26T05:32:47;10.40;99.90
59067;DHT22;44854;50.838;4.438;2023-03-26T05:35:16;10.40;99.90
59067;DHT22;44854;50.838;4.438;2023-03-26T05:37:42;10.50;99.90
59067;DHT22;44854;50.838;4.438;2023-03-26T05:40:08;10.40;99.90
59067;DHT22;44854;50.838;4.438;2023-03-26T05:42:39;10.50;99.90
59067;DHT22;44854;50.838;4.438;2023-03-26T05:45:06;10.50;99.90
59067;DHT22;44854;50.838;4.438;2023-03-26T05:47:31;10.50;99.90
59067;DHT22;44854;50.838;4.438;2023-03-26T05:49:57;10.40;99.90
59067;DHT22;44854;50.838;4.438;2023-03-26T05:52:23;10.40;99.90
59067;DHT22;44854;50.838;4.438;2023-03-26T05:54:49;10.40;99.90
59067;DHT22;44854;50.838;4.438;2023-03-26T05:57:14;10.40;99.90
59067;DHT22;44854;50.838;4.438;2023-03-26T05:59:40;10.40;99.90
59067;DHT22;44854;50.838;4.438;2023-03-26T06:02:06;10.40;99.90
59067;DHT22;44854;50.838;4.438;2023-03-26T06:04:32;10.20;99.90
59067;DHT22;44854;50.838;4.438;2023-03-26T06:06:57;10.10;99.90
59067;DHT22;44854;50.838;4.438;2023-03-26T06:09:23;10.10;99.90
59067;DHT22;44854;50.838;4.438;2023-03-26T06:11:48;10.10;99.90
59067;DHT22;44854;50.838;4.438;2023-03-26T06:14:14;10.20;99.90
59067;DHT22;44854;50.838;4.438;2023-03-26T06:16:40;10.20;99.90
59067;DHT22;44854;50.838;4.438;2023-03-26T06:19:05;10.20;99.90
59067;DHT22;44854;50.838;4.438;2023-03-26T06:21:31;10.20;99.90
59067;DHT22;44854;50.838;4.438;2023-03-26T06:23:56;10.30;99.90
59067;DHT22;44854;50.838;4.438;2023-03-26T06:26:22;10.20;99.90
59067;DHT22;44854;50.838;4.438;2023-03-26T06:28:48;10.20;99.90
59067;DHT22;44854;50.838;4.438;2023-03-26T06:31:13;10.20;99.90
59067;DHT22;44854;50.838;4.438;2023-03-26T06:33:41;10.20;99.90
59067;DHT22;44854;50.838;4.438;2023-03-26T06:36:07;10.20;99.90
59067;DHT22;44854;50.838;4.438;2023-03-26T06:38:33;10.20;99.90
59067;DHT22;44854;50.838;4.438;2023-03-26T06:41:02;10.10;99.90
59067;DHT22;44854;50.838;4.438;2023-03-26T06:43:28;10.10;99.90
59067;DHT22;44854;50.838;4.438;2023-03-26T06:46:00;10.20;99.90
59067;DHT22;44854;50.838;4.438;2023-03-26T06:48:26;10.20;99.90
59067;DHT22;44854;50.838;4.438;2023-03-26T06:50:52;10.10;99.90
59067;DHT22;44854;50.838;4.438;2023-03-26T06:53:18;10.20;99.90
59067;DHT22;44854;50.838;4.438;2023-03-26T06:55:43;10.10;99.90
59067;DHT22;44854;50.838;4.438;2023-03-26T06:58:11;10.20;99.90
59067;DHT22;44854;50.838;4.438;2023-03-26T07:00:37;10.00;99.90
59067;DHT22;44854;50.838;4.438;2023-03-26T07:03:03;9.90;99.90
59067;DHT22;44854;50.838;4.438;2023-03-26T07:05:29;10.00;99.90
59067;DHT22;44854;50.838;4.438;2023-03-26T07:07:55;10.00;99.90
59067;DHT22;44854;50.838;4.438;2023-03-26T07:10:20;10.00;99.90
59067;DHT22;44854;50.838;4.438;2023-03-26T07:12:46;10.00;99.90
59067;DHT22;44854;50.838;4.438;2023-03-26T07:15:11;10.00;99.90
59067;DHT22;44854;50.838;4.438;2023-03-26T07:17:37;9.90;99.90
59067;DHT22;44854;50.838;4.438;2023-03-26T07:20:03;9.80;99.90
59067;DHT22;44854;50.838;4.438;2023-03-26T07:22:29;9.80;99.90
59067;DHT22;44854;50.838;4.438;2023-03-26T07:24:55;9.80;99.90
59067;DHT22;44854;50.838;4.438;2023-03-26T07:27:24;9.60;99.90
59067;DHT22;44854;50.838;4.438;2023-03-26T07:29:58;9.50;99.90
59067;DHT22;44854;50.838;4.438;2023-03-26T07:32:39;9.50;99.90
59067;DHT22;44854;50.838;4.438;2023-03-26T07:35:17;9.40;99.90
59067;DHT22;44854;50.838;4.438;2023-03-26T07:45:36;9.60;99.90
59067;DHT22;44854;50.838;4.438;2023-03-26T07:48:17;9.50;99.90
59067;DHT22;44854;50.838;4.438;2023-03-26T07:50:44;9.40;99.90
59067;DHT22;44854;50.838;4.438;2023-03-26T07:53:11;9.40;99.90
59067;DHT22;44854;50.838;4.438;2023-03-26T07:55:40;9.30;99.90
59067;DHT22;44854;50.838;4.438;2023-03-26T08:00:35;9.40;99.90
59067;DHT22;44854;50.838;4.438;2023-03-26T08:05:51;9.40;99.90
59067;DHT22;44854;50.838;4.438;2023-03-26T08:13:20;9.30;99.90
59067;DHT22;44854;50.838;4.438;2023-03-26T08:20:47;9.30;99.90
59067;DHT22;44854;50.838;4.438;2023-03-26T08:23:22;9.30;99.90
59067;DHT22;44854;50.838;4.438;2023-03-26T08:30:58;9.20;99.90
59067;DHT22;44854;50.838;4.438;2023-03-26T08:33:27;9.20;99.90
59067;DHT22;44854;50.838;4.438;2023-03-26T08:35:52;9.20;99.90
59067;DHT22;44854;50.838;4.438;2023-03-26T08:38:18;9.10;99.90
59067;DHT22;44854;50.838;4.438;2023-03-26T08:43:34;9.20;99.90
59067;DHT22;44854;50.838;4.438;2023-03-26T08:54:06;9.40;99.90
59067;DHT22;44854;50.838;4.438;2023-03-26T09:07:31;9.30;99.90
59067;DHT22;44854;50.838;4.438;2023-03-26T09:15:25;9.30;99.90
59067;DHT22;44854;50.838;4.438;2023-03-26T09:23:13;9.10;99.90
59067;DHT22;44854;50.838;4.438;2023-03-26T09:31:47;9.10;99.90
59067;DHT22;44854;50.838;4.438;2023-03-26T09:36:52;9.10;99.90
59067;DHT22;44854;50.838;4.438;2023-03-26T10:04:41;9.20;99.90
59067;DHT22;44854;50.838;4.438;2023-03-26T10:27:38;9.20;99.90
59067;DHT22;44854;50.838;4.438;2023-03-26T10:35:27;9.30;99.90
59067;DHT22;44854;50.838;4.438;2023-03-26T10:43:23;9.40;99.90
59067;DHT22;44854;50.838;4.438;2023-03-26T10:51:03;9.20;99.90
59067;DHT22;44854;50.838;4.438;2023-03-26T10:53:33;9.20;99.90
59067;DHT22;44854;50.838;4.438;2023-03-26T10:56:05;9.20;99.90
59067;DHT22;44854;50.838;4.438;2023-03-26T10:58:33;9.20;99.90
59067;DHT22;44854;50.838;4.438;2023-03-26T11:01:03;9.20;99.90
59067;DHT22;44854;50.838;4.438;2023-03-26T11:06:14;9.20;99.90
59067;DHT22;44854;50.838;4.438;2023-03-26T11:13:56;9.30;99.90
59067;DHT22;44854;50.838;4.438;2023-03-26T11:16:26;9.30;99.90
59067;DHT22;44854;50.838;4.438;2023-03-26T11:26:40;9.20;99.90
59067;DHT22;44854;50.838;4.438;2023-03-26T11:34:30;9.50;99.90
59067;DHT22;44854;50.838;4.438;2023-03-26T11:36:58;9.40;99.90
59067;DHT22;44854;50.838;4.438;2023-03-26T11:39:26;9.50;99.90
59067;DHT22;44854;50.838;4.438;2023-03-26T11:42:02;9.60;99.90
59067;DHT22;44854;50.838;4.438;2023-03-26T11:44:36;9.50;99.90
59067;DHT22;44854;50.838;4.438;2023-03-26T11:47:04;9.60;99.90
59067;DHT22;44854;50.838;4.438;2023-03-26T11:49:33;9.60;99.90
59067;DHT22;44854;50.838;4.438;2023-03-26T11:51:58;9.70;99.90
59067;DHT22;44854;50.838;4.438;2023-03-26T11:54:26;9.80;99.90
59067;DHT22;44854;50.838;4.438;2023-03-26T11:59:50;9.60;99.90
59067;DHT22;44854;50.838;4.438;2023-03-26T12:04:50;9.60;99.90
59067;DHT22;44854;50.838;4.438;2023-03-26T12:07:29;9.70;99.90
59067;DHT22;44854;50.838;4.438;2023-03-26T12:10:01;9.60;99.90
59067;DHT22;44854;50.838;4.438;2023-03-26T12:12:38;9.60;99.90
59067;DHT22;44854;50.838;4.438;2023-03-26T12:15:23;9.70;99.90
59067;DHT22;44854;50.838;4.438;2023-03-26T12:17:50;9.80;99.90
59067;DHT22;44854;50.838;4.438;2023-03-26T12:22:55;9.80;99.90
59067;DHT22;44854;50.838;4.438;2023-03-26T12:25:25;9.90;99.90
59067;DHT22;44854;50.838;4.438;2023-03-26T12:27:56;9.90;99.90
59067;DHT22;44854;50.838;4.438;2023-03-26T12:30:28;10.00;99.90
59067;DHT22;44854;50.838;4.438;2023-03-26T12:33:03;9.90;99.90
59067;DHT22;44854;50.838;4.438;2023-03-26T12:35:30;9.90;99.90
59067;DHT22;44854;50.838;4.438;2023-03-26T12:40:43;10.00;99.90
59067;DHT22;44854;50.838;4.438;2023-03-26T12:43:27;9.90;99.90
59067;DHT22;44854;50.838;4.438;2023-03-26T12:45:54;10.10;99.90
59067;DHT22;44854;50.838;4.438;2023-03-26T12:48:20;10.20;99.90
59067;DHT22;44854;50.838;4.438;2023-03-26T12:51:12;10.10;99.90
59067;DHT22;44854;50.838;4.438;2023-03-26T12:56:27;10.10;99.90
59067;DHT22;44854;50.838;4.438;2023-03-26T13:04:47;10.30;99.90
59067;DHT22;44854;50.838;4.438;2023-03-26T13:07:26;10.40;99.90
59067;DHT22;44854;50.838;4.438;2023-03-26T13:17:46;10.10;99.90
59067;DHT22;44854;50.838;4.438;2023-03-26T13:20:18;10.20;99.90
59067;DHT22;44854;50.838;4.438;2023-03-26T13:23:00;10.40;99.90
59067;DHT22;44854;50.838;4.438;2023-03-26T13:28:03;10.60;99.90
59067;DHT22;44854;50.838;4.438;2023-03-26T13:35:42;10.10;99.90
59067;DHT22;44854;50.838;4.438;2023-03-26T13:38:17;10.00;99.90
59067;DHT22;44854;50.838;4.438;2023-03-26T13:46:13;10.40;99.90
59067;DHT22;44854;50.838;4.438;2023-03-26T13:56:37;10.40;99.90
59067;DHT22;44854;50.838;4.438;2023-03-26T13:59:22;10.40;99.90
59067;DHT22;44854;50.838;4.438;2023-03-26T14:01:54;10.20;99.90
59067;DHT22;44854;50.838;4.438;2023-03-26T14:04:28;10.20;99.90
59067;DHT22;44854;50.838;4.438;2023-03-26T14:07:17;10.20;99.90
59067;DHT22;44854;50.838;4.438;2023-03-26T14:09:50;10.40;99.90
59067;DHT22;44854;50.838;4.438;2023-03-26T14:12:28;10.50;99.90
59067;DHT22;44854;50.838;4.438;2023-03-26T14:28:00;10.30;99.90
59067;DHT22;44854;50.838;4.438;2023-03-26T14:35:35;10.50;99.90
59067;DHT22;44854;50.838;4.438;2023-03-26T14:40:45;10.20;99.90
59067;DHT22;44854;50.838;4.438;2023-03-26T14:53:27;10.20;99.90
59067;DHT22;44854;50.838;4.438;2023-03-26T14:58:27;10.20;99.90
59067;DHT22;44854;50.838;4.438;2023-03-26T15:27:01;10.40;99.90
59067;DHT22;44854;50.838;4.438;2023-03-26T15:35:11;9.90;99.90
59067;DHT22;44854;50.838;4.438;2023-03-26T15:40:22;9.90;99.90
59067;DHT22;44854;50.838;4.438;2023-03-26T15:45:34;9.80;99.90
59067;DHT22;44854;50.838;4.438;2023-03-26T15:50:51;10.00;99.90
59067;DHT22;44854;50.838;4.438;2023-03-26T16:03:49;9.80;99.90
59067;DHT22;44854;50.838;4.438;2023-03-26T16:16:51;9.60;99.90
59067;DHT22;44854;50.838;4.438;2023-03-26T16:24:22;9.60;99.90
59067;DHT22;44854;50.838;4.438;2023-03-26T16:34:24;9.40;99.90
59067;DHT22;44854;50.838;4.438;2023-03-26T16:36:50;9.30;99.90
59067;DHT22;44854;50.838;4.438;2023-03-26T16:39:17;9.40;99.90
59067;DHT22;44854;50.838;4.438;2023-03-26T16:52:36;9.70;99.90
59067;DHT22;44854;50.838;4.438;2023-03-26T16:57:36;9.70;99.90
59067;DHT22;44854;50.838;4.438;2023-03-26T17:07:37;9.90;99.90
59067;DHT22;44854;50.838;4.438;2023-03-26T17:10:08;9.80;99.90
59067;DHT22;44854;50.838;4.438;2023-03-26T17:15:23;9.50;99.90
59067;DHT22;44854;50.838;4.438;2023-03-26T17:18:02;9.40;99.90
59067;DHT22;44854;50.838;4.438;2023-03-26T17:20:36;9.40;99.90
59067;DHT22;44854;50.838;4.438;2023-03-26T17:23:25;9.30;99.90
59067;DHT22;44854;50.838;4.438;2023-03-26T17:33:27;9.50;99.90
59067;DHT22;44854;50.838;4.438;2023-03-26T17:41:03;9.20;99.90
59067;DHT22;44854;50.838;4.438;2023-03-26T17:46:02;9.20;99.90
59067;DHT22;44854;50.838;4.438;2023-03-26T17:48:29;9.20;99.90
59067;DHT22;44854;50.838;4.438;2023-03-26T17:51:01;9.20;99.90
59067;DHT22;44854;50.838;4.438;2023-03-26T17:53:27;9.20;99.90
59067;DHT22;44854;50.838;4.438;2023-03-26T17:55:56;9.20;99.90
59067;DHT22;44854;50.838;4.438;2023-03-26T17:58:24;9.20;99.90
59067;DHT22;44854;50.838;4.438;2023-03-26T18:00:51;9.30;99.90
59067;DHT22;44854;50.838;4.438;2023-03-26T18:03:28;9.30;99.90
59067;DHT22;44854;50.838;4.438;2023-03-26T18:06:03;9.30;99.90
59067;DHT22;44854;50.838;4.438;2023-03-26T18:08:39;9.40;99.90
59067;DHT22;44854;50.838;4.438;2023-03-26T18:16:42;9.30;99.90
59067;DHT22;44854;50.838;4.438;2023-03-26T18:19:10;9.20;99.90
59067;DHT22;44854;50.838;4.438;2023-03-26T18:21:42;9.20;99.90
59067;DHT22;44854;50.838;4.438;2023-03-26T18:24:12;9.20;99.90
59067;DHT22;44854;50.838;4.438;2023-03-26T18:26:41;9.10;99.90
59067;DHT22;44854;50.838;4.438;2023-03-26T18:31:41;9.10;99.90
59067;DHT22;44854;50.838;4.438;2023-03-26T18:34:17;9.10;99.90
59067;DHT22;44854;50.838;4.438;2023-03-26T18:39:38;8.90;99.90
59067;DHT22;44854;50.838;4.438;2023-03-26T18:42:05;8.90;99.90
59067;DHT22;44854;50.838;4.438;2023-03-26T18:44:31;8.70;99.90
59067;DHT22;44854;50.838;4.438;2023-03-26T18:46:59;8.70;99.90
59067;DHT22;44854;50.838;4.438;2023-03-26T18:49:31;8.70;99.90
59067;DHT22;44854;50.838;4.438;2023-03-26T18:51:57;8.80;99.90
59067;DHT22;44854;50.838;4.438;2023-03-26T18:54:23;8.80;99.90
59067;DHT22;44854;50.838;4.438;2023-03-26T18:56:49;8.70;99.90
59067;DHT22;44854;50.838;4.438;2023-03-26T18:59:19;8.80;99.90
59067;DHT22;44854;50.838;4.438;2023-03-26T19:01:46;8.70;99.90
59067;DHT22;44854;50.838;4.438;2023-03-26T19:04:13;8.60;99.90
59067;DHT22;44854;50.838;4.438;2023-03-26T19:06:40;8.60;99.90
59067;DHT22;44854;50.838;4.438;2023-03-26T19:09:07;8.60;99.90
59067;DHT22;44854;50.838;4.438;2023-03-26T19:11:38;8.60;99.90
59067;DHT22;44854;50.838;4.438;2023-03-26T19:14:17;8.40;99.90
59067;DHT22;44854;50.838;4.438;2023-03-26T19:16:46;8.50;99.90
59067;DHT22;44854;50.838;4.438;2023-03-26T19:19:15;8.50;99.90
59067;DHT22;44854;50.838;4.438;2023-03-26T19:21:41;8.50;99.90
59067;DHT22;44854;50.838;4.438;2023-03-26T19:24:07;8.50;99.90
59067;DHT22;44854;50.838;4.438;2023-03-26T19:26:33;8.60;99.90
59067;DHT22;44854;50.838;4.438;2023-03-26T19:29:00;8.40;99.90
59067;DHT22;44854;50.838;4.438;2023-03-26T19:31:35;8.40;99.90
59067;DHT22;44854;50.838;4.438;2023-03-26T19:36:53;8.40;99.90
59067;DHT22;44854;50.838;4.438;2023-03-26T19:39:24;8.60;99.90
59067;DHT22;44854;50.838;4.438;2023-03-26T19:41:50;8.60;99.90
59067;DHT22;44854;50.838;4.438;2023-03-26T19:44:18;8.70;99.90
59067;DHT22;44854;50.838;4.438;2023-03-26T19:46:45;8.50;99.90
59067;DHT22;44854;50.838;4.438;2023-03-26T19:49:21;8.50;99.90
59067;DHT22;44854;50.838;4.438;2023-03-26T19:51:49;8.60;99.90
59067;DHT22;44854;50.838;4.438;2023-03-26T19:54:17;8.60;99.90
59067;DHT22;44854;50.838;4.438;2023-03-26T19:56:44;8.60;99.90
59067;DHT22;44854;50.838;4.438;2023-03-26T19:59:09;8.50;99.90
59067;DHT22;44854;50.838;4.438;2023-03-26T20:01:35;8.40;99.90
59067;DHT22;44854;50.838;4.438;2023-03-26T20:04:02;8.50;99.90
59067;DHT22;44854;50.838;4.438;2023-03-26T20:06:29;8.60;99.90
59067;DHT22;44854;50.838;4.438;2023-03-26T20:08:55;8.50;99.90
59067;DHT22;44854;50.838;4.438;2023-03-26T20:11:23;8.50;99.90
59067;DHT22;44854;50.838;4.438;2023-03-26T20:13:50;8.30;99.90
59067;DHT22;44854;50.838;4.438;2023-03-26T20:16:26;8.20;99.90
59067;DHT22;44854;50.838;4.438;2023-03-26T20:18:52;8.30;99.90
59067;DHT22;44854;50.838;4.438;2023-03-26T20:21:22;8.20;99.90
59067;DHT22;44854;50.838;4.438;2023-03-26T20:23:47;8.10;99.90
59067;DHT22;44854;50.838;4.438;2023-03-26T20:26:14;8.00;99.90
59067;DHT22;44854;50.838;4.438;2023-03-26T20:28:40;8.00;99.90
59067;DHT22;44854;50.838;4.438;2023-03-26T20:31:10;8.10;99.90
59067;DHT22;44854;50.838;4.438;2023-03-26T20:33:36;8.00;99.90
59067;DHT22;44854;50.838;4.438;2023-03-26T20:36:01;7.80;99.90
59067;DHT22;44854;50.838;4.438;2023-03-26T20:38:28;7.80;99.90
59067;DHT22;44854;50.838;4.438;2023-03-26T20:40:53;7.80;99.90
59067;DHT22;44854;50.838;4.438;2023-03-26T20:43:19;7.80;99.90
59067;DHT22;44854;50.838;4.438;2023-03-26T20:45:46;7.80;99.90
59067;DHT22;44854;50.838;4.438;2023-03-26T20:48:12;7.80;99.90
59067;DHT22;44854;50.838;4.438;2023-03-26T20:50:38;7.80;99.90
59067;DHT22;44854;50.838;4.438;2023-03-26T20:53:06;7.80;99.90
59067;DHT22;44854;50.838;4.438;2023-03-26T20:55:32;7.90;99.90
59067;DHT22;44854;50.838;4.438;2023-03-26T20:57:57;7.80;99.90
59067;DHT22;44854;50.838;4.438;2023-03-26T21:00:23;7.90;99.90
59067;DHT22;44854;50.838;4.438;2023-03-26T21:02:51;7.80;99.90
59067;DHT22;44854;50.838;4.438;2023-03-26T21:05:20;7.70;99.90
59067;DHT22;44854;50.838;4.438;2023-03-26T21:07:50;7.70;99.90
59067;DHT22;44854;50.838;4.438;2023-03-26T21:10:16;7.60;99.90
59067;DHT22;44854;50.838;4.438;2023-03-26T21:12:46;7.70;99.90
59067;DHT22;44854;50.838;4.438;2023-03-26T21:15:13;7.70;99.90
59067;DHT22;44854;50.838;4.438;2023-03-26T21:17:38;7.60;99.90
59067;DHT22;44854;50.838;4.438;2023-03-26T21:20:05;7.70;99.90
59067;DHT22;44854;50.838;4.438;2023-03-26T21:27:32;7.50;99.90
59067;DHT22;44854;50.838;4.438;2023-03-26T21:30:01;7.60;99.90
59067;DHT22;44854;50.838;4.438;2023-03-26T21:32:33;7.70;99.90
59067;DHT22;44854;50.838;4.438;2023-03-26T21:34:59;7.70;99.90
59067;DHT22;44854;50.838;4.438;2023-03-26T21:37:25;7.70;99.90
59067;DHT22;44854;50.838;4.438;2023-03-26T21:39:51;7.70;99.90
59067;DHT22;44854;50.838;4.438;2023-03-26T21:42:16;7.70;99.90
59067;DHT22;44854;50.838;4.438;2023-03-26T21:44:42;7.70;99.90
59067;DHT22;44854;50.838;4.438;2023-03-26T21:47:08;7.60;99.90
59067;DHT22;44854;50.838;4.438;2023-03-26T21:49:34;7.50;99.90
59067;DHT22;44854;50.838;4.438;2023-03-26T21:52:00;7.40;99.90
59067;DHT22;44854;50.838;4.438;2023-03-26T21:54:27;7.40;99.90
59067;DHT22;44854;50.838;4.438;2023-03-26T22:02:29;7.50;99.90
59067;DHT22;44854;50.838;4.438;2023-03-26T22:04:56;7.40;99.90
59067;DHT22;44854;50.838;4.438;2023-03-26T22:09:59;7.40;99.90
59067;DHT22;44854;50.838;4.438;2023-03-26T22:12:25;7.50;99.90
59067;DHT22;44854;50.838;4.438;2023-03-26T22:14:51;7.60;99.90
59067;DHT22;44854;50.838;4.438;2023-03-26T22:17:17;7.50;99.90
59067;DHT22;44854;50.838;4.438;2023-03-26T22:19:44;7.50;99.90
59067;DHT22;44854;50.838;4.438;2023-03-26T22:22:17;7.50;99.90
59067;DHT22;44854;50.838;4.438;2023-03-26T22:24:43;7.50;99.90
59067;DHT22;44854;50.838;4.438;2023-03-26T22:27:09;7.50;99.90
59067;DHT22;44854;50.838;4.438;2023-03-26T22:29:37;7.40;99.90
59067;DHT22;44854;50.838;4.438;2023-03-26T22:32:03;7.40;99.90
59067;DHT22;44854;50.838;4.438;2023-03-26T22:34:28;7.40;99.90
59067;DHT22;44854;50.838;4.438;2023-03-26T22:36:54;7.30;99.90
59067;DHT22;44854;50.838;4.438;2023-03-26T22:39:20;7.30;99.90
59067;DHT22;44854;50.838;4.438;2023-03-26T22:41:46;7.30;99.90
59067;DHT22;44854;50.838;4.438;2023-03-26T22:44:11;7.20;99.90
59067;DHT22;44854;50.838;4.438;2023-03-26T22:46:38;7.30;99.90
59067;DHT22;44854;50.838;4.438;2023-03-26T22:49:04;7.20;99.90
59067;DHT22;44854;50.838;4.438;2023-03-26T22:51:30;7.20;99.90
59067;DHT22;44854;50.838;4.438;2023-03-26T22:53:56;7.10;99.90
59067;DHT22;44854;50.838;4.438;2023-03-26T22:56:21;7.00;99.90
59067;DHT22;44854;50.838;4.438;2023-03-26T22:58:47;7.10;99.90
59067;DHT22;44854;50.838;4.438;2023-03-26T23:01:14;7.20;99.90
59067;DHT22;44854;50.838;4.438;2023-03-26T23:03:42;7.10;99.90
59067;DHT22;44854;50.838;4.438;2023-03-26T23:06:08;7.10;99.90
59067;DHT22;44854;50.838;4.438;2023-03-26T23:08:34;7.00;99.90
59067;DHT22;44854;50.838;4.438;2023-03-26T23:11:11;7.00;99.90
59067;DHT22;44854;50.838;4.438;2023-03-26T23:13:38;7.00;99.90
59067;DHT22;44854;50.838;4.438;2023-03-26T23:16:05;6.90;99.90
59067;DHT22;44854;50.838;4.438;2023-03-26T23:18:30;6.90;99.90
